Time;durP1;ratioP1;P1;durP2;ratioP2;P2;SDS_P1;SDS_P2;PMS_P1;PMS_P2;Temp;Humidity;BMP_temperature;BMP_pressure;BME280_temperature;BME280_humidity;BME280_pressure;Samples;Min_cycle;Max_cycle;Signal;HPM_P1;HPM_P2
2023/01/02 00:00:20;;;;;;;6.80;3.10;;;;;;;;;;5007205;28;20413;-44
2023/01/02 00:02:46;;;;;;;7.17;3.70;;;;;;;;;;5012193;28;20421;-44
2023/01/02 00:05:12;;;;;;;3.10;2.77;;;;;;;;;;5012263;28;20497;-44
2023/01/02 00:07:38;;;;;;;7.73;3.47;;;;;;;;;;5010197;28;20450;-44
2023/01/02 00:10:04;;;;;;;9.67;3.23;;;;;;;;;;5011893;28;20417;-44
2023/01/02 00:12:30;;;;;;;10.47;2.93;;;;;;;;;;5012237;28;20411;-44
2023/01/02 00:14:56;;;;;;;10.53;3.50;;;;;;;;;;5007127;28;20410;-44
2023/01/02 00:17:22;;;;;;;10.03;3.93;;;;;;;;;;5011889;28;20434;-44
2023/01/02 00:19:48;;;;;;;8.93;2.73;;;;;;;;;;5011971;28;20410;-43
2023/01/02 00:22:14;;;;;;;9.23;4.13;;;;;;;;;;5012142;28;20415;-44
2023/01/02 00:24:40;;;;;;;6.03;3.53;;;;;;;;;;5008654;28;20518;-44
2023/01/02 00:27:06;;;;;;;11.67;3.77;;;;;;;;;;5011482;28;20484;-44
2023/01/02 00:29:32;;;;;;;8.60;3.63;;;;;;;;;;5011877;28;20440;-43
2023/01/02 00:31:58;;;;;;;5.40;3.20;;;;;;;;;;5005260;28;20454;-43
2023/01/02 00:34:24;;;;;;;6.17;3.70;;;;;;;;;;5011956;28;20492;-44
2023/01/02 00:36:50;;;;;;;8.47;3.50;;;;;;;;;;5012109;28;20409;-47
2023/01/02 00:39:16;;;;;;;10.50;3.33;;;;;;;;;;5008946;28;20428;-46
2023/01/02 00:41:42;;;;;;;12.13;3.67;;;;;;;;;;5012083;28;20422;-45
2023/01/02 00:44:08;;;;;;;3.20;2.70;;;;;;;;;;5008357;28;20406;-46
2023/01/02 00:46:34;;;;;;;14.80;3.80;;;;;;;;;;5009421;28;20424;-45
2023/01/02 00:49:00;;;;;;;9.73;3.27;;;;;;;;;;5012076;28;20456;-46
2023/01/02 00:51:26;;;;;;;6.00;3.50;;;;;;;;;;5014498;28;20471;-47
2023/01/02 00:53:52;;;;;;;7.03;3.90;;;;;;;;;;5016134;28;20442;-46
2023/01/02 00:56:18;;;;;;;8.40;4.30;;;;;;;;;;5011145;28;20785;-46
2023/01/02 00:58:44;;;;;;;8.03;4.33;;;;;;;;;;5015967;28;20432;-46
2023/01/02 01:01:10;;;;;;;10.53;3.53;;;;;;;;;;5011125;28;20410;-45
2023/01/02 01:03:37;;;;;;;7.63;3.27;;;;;;;;;;5013717;28;20478;-45
2023/01/02 01:06:07;;;;;;;5.67;3.50;;;;;;;;;;5017689;28;20407;-45
2023/01/02 01:08:33;;;;;;;7.60;3.30;;;;;;;;;;5015213;28;20956;-45
2023/01/02 01:11:04;;;;;;;6.10;3.87;;;;;;;;;;4995118;28;20495;-46
2023/01/02 01:13:30;;;;;;;5.50;3.43;;;;;;;;;;5017630;28;20984;-45
2023/01/02 01:15:56;;;;;;;6.53;3.50;;;;;;;;;;5009539;28;20447;-45
2023/01/02 01:18:21;;;;;;;8.90;4.73;;;;;;;;;;5017190;28;20422;-46
2023/01/02 01:20:47;;;;;;;10.67;4.37;;;;;;;;;;5005668;28;20427;-46
2023/01/02 01:23:13;;;;;;;15.50;4.00;;;;;;;;;;5015288;28;20538;-44
2023/01/02 01:25:39;;;;;;;11.33;4.00;;;;;;;;;;5014896;28;20443;-43
2023/01/02 01:28:05;;;;;;;5.50;4.03;;;;;;;;;;5017139;28;20435;-43
2023/01/02 01:30:31;;;;;;;9.30;4.33;;;;;;;;;;5016403;28;20467;-45
2023/01/02 01:32:57;;;;;;;21.47;4.87;;;;;;;;;;5016556;28;20495;-47
2023/01/02 01:35:23;;;;;;;5.77;3.87;;;;;;;;;;5015785;28;20762;-45
2023/01/02 01:37:49;;;;;;;8.57;3.70;;;;;;;;;;5010691;28;20431;-46
2023/01/02 01:40:15;;;;;;;7.93;4.10;;;;;;;;;;5015604;28;20454;-45
2023/01/02 01:42:41;;;;;;;9.77;4.97;;;;;;;;;;5014003;28;20415;-46
2023/01/02 01:45:14;;;;;;;8.83;3.83;;;;;;;;;;5012681;28;20419;-46
2023/01/02 01:47:42;;;;;;;7.03;3.80;;;;;;;;;;5013677;28;20427;-45
2023/01/02 01:50:21;;;;;;;15.37;5.00;;;;;;;;;;5014701;28;20419;-47
2023/01/02 01:52:49;;;;;;;7.03;4.30;;;;;;;;;;5010103;28;20451;-46
2023/01/02 01:55:15;;;;;;;8.80;4.40;;;;;;;;;;5015304;28;20416;-47
2023/01/02 01:57:44;;;;;;;6.40;3.60;;;;;;;;;;5015081;28;20435;-46
2023/01/02 02:00:10;;;;;;;6.37;4.00;;;;;;;;;;5015427;28;20403;-45
2023/01/02 02:02:38;;;;;;;8.70;3.47;;;;;;;;;;5010431;28;20422;-45
2023/01/02 02:05:05;;;;;;;10.13;4.63;;;;;;;;;;5004494;28;20419;-45
2023/01/02 02:07:32;;;;;;;5.90;3.37;;;;;;;;;;5014832;28;20449;-46
2023/01/02 02:10:00;;;;;;;6.13;3.40;;;;;;;;;;5008767;28;20412;-46
2023/01/02 02:12:27;;;;;;;4.43;3.30;;;;;;;;;;5014795;28;20426;-46
2023/01/02 02:14:53;;;;;;;11.90;3.80;;;;;;;;;;5013071;28;20408;-45
2023/01/02 02:17:28;;;;;;;7.73;3.70;;;;;;;;;;5015090;28;20927;-47
2023/01/02 02:20:16;;;;;;;8.17;3.57;;;;;;;;;;5003696;28;20412;-46
2023/01/02 02:22:54;;;;;;;9.40;4.00;;;;;;;;;;5009535;28;20837;-45
2023/01/02 02:25:38;;;;;;;8.00;3.43;;;;;;;;;;5015195;28;20796;-44
2023/01/02 02:28:13;;;;;;;8.97;3.50;;;;;;;;;;5007129;28;20438;-44
2023/01/02 02:30:47;;;;;;;8.90;3.70;;;;;;;;;;5014738;28;20944;-46
2023/01/02 02:33:25;;;;;;;6.67;3.87;;;;;;;;;;5012267;28;20412;-46
2023/01/02 02:35:55;;;;;;;4.70;3.60;;;;;;;;;;5014294;28;20401;-45
2023/01/02 02:38:21;;;;;;;3.53;2.83;;;;;;;;;;5015139;28;20427;-46
2023/01/02 02:40:56;;;;;;;12.70;3.87;;;;;;;;;;5007080;28;20428;-45
2023/01/02 02:43:35;;;;;;;7.63;3.97;;;;;;;;;;5014758;28;20931;-46
2023/01/02 02:46:07;;;;;;;10.37;3.90;;;;;;;;;;5009800;28;20415;-47
2023/01/02 02:48:40;;;;;;;3.50;3.20;;;;;;;;;;5009449;28;20435;-46
2023/01/02 02:51:09;;;;;;;11.27;3.73;;;;;;;;;;5014393;28;20508;-45
2023/01/02 02:53:40;;;;;;;4.93;3.30;;;;;;;;;;5006308;28;20417;-47
2023/01/02 02:56:07;;;;;;;3.83;3.30;;;;;;;;;;5013766;28;20422;-46
2023/01/02 02:58:34;;;;;;;4.60;3.20;;;;;;;;;;5011659;28;20797;-46
2023/01/02 03:01:11;;;;;;;6.47;4.43;;;;;;;;;;5014463;28;20415;-46
2023/01/02 03:03:37;;;;;;;7.20;4.70;;;;;;;;;;5014463;28;20419;-45
2023/01/02 03:06:23;;;;;;;7.27;4.50;;;;;;;;;;5008152;28;20417;-45
2023/01/02 03:08:54;;;;;;;5.07;4.43;;;;;;;;;;5014075;28;20443;-45
2023/01/02 03:11:22;;;;;;;6.63;3.50;;;;;;;;;;5013881;28;20459;-47
2023/01/02 03:13:58;;;;;;;12.00;3.93;;;;;;;;;;5011258;28;20416;-46
2023/01/02 03:16:33;;;;;;;5.03;3.00;;;;;;;;;;5013797;28;20409;-46
2023/01/02 03:19:02;;;;;;;9.93;3.87;;;;;;;;;;5001192;28;20428;-44
2023/01/02 03:21:35;;;;;;;4.90;3.80;;;;;;;;;;5014587;28;20477;-46
2023/01/02 03:24:06;;;;;;;6.60;3.50;;;;;;;;;;5005901;28;20418;-47
2023/01/02 03:26:33;;;;;;;4.70;3.50;;;;;;;;;;5014359;28;20426;-45
2023/01/02 03:29:06;;;;;;;14.33;3.57;;;;;;;;;;5013975;28;20430;-46
2023/01/02 03:31:36;;;;;;;6.77;3.40;;;;;;;;;;5010798;28;20470;-46
2023/01/02 03:34:17;;;;;;;7.67;3.60;;;;;;;;;;5014148;28;20396;-46
2023/01/02 03:36:46;;;;;;;6.93;4.30;;;;;;;;;;5014332;28;20414;-46
2023/01/02 03:39:14;;;;;;;8.83;3.90;;;;;;;;;;5013495;28;20458;-44
2023/01/02 03:41:50;;;;;;;8.30;3.83;;;;;;;;;;5011385;28;20421;-46
2023/01/02 03:44:17;;;;;;;9.63;4.57;;;;;;;;;;5014550;28;20417;-46
2023/01/02 03:46:47;;;;;;;4.73;3.60;;;;;;;;;;5007421;28;20422;-46
2023/01/02 03:49:18;;;;;;;10.47;4.47;;;;;;;;;;5008445;28;20582;-45
2023/01/02 03:51:44;;;;;;;12.90;4.17;;;;;;;;;;5011783;28;20470;-45
2023/01/02 03:54:10;;;;;;;10.67;4.57;;;;;;;;;;5013966;28;20744;-45
2023/01/02 03:56:36;;;;;;;7.70;3.80;;;;;;;;;;5013515;28;20868;-44
2023/01/02 03:59:08;;;;;;;8.13;4.50;;;;;;;;;;5009476;28;20465;-44
2023/01/02 04:01:43;;;;;;;8.73;4.20;;;;;;;;;;5014250;28;20450;-45
2023/01/02 04:04:09;;;;;;;8.03;4.17;;;;;;;;;;5006522;28;20441;-45
2023/01/02 04:06:37;;;;;;;6.97;4.37;;;;;;;;;;5012723;28;20419;-46
2023/01/02 04:09:11;;;;;;;7.00;3.80;;;;;;;;;;5013413;28;20435;-45
2023/01/02 04:11:39;;;;;;;8.07;4.60;;;;;;;;;;5009087;28;20466;-45
2023/01/02 04:14:13;;;;;;;9.50;4.67;;;;;;;;;;5013949;28;20407;-46
2023/01/02 04:16:40;;;;;;;6.23;4.53;;;;;;;;;;5012644;28;20411;-47
2023/01/02 04:19:17;;;;;;;6.83;4.10;;;;;;;;;;5006872;28;20431;-45
2023/01/02 04:21:45;;;;;;;8.90;4.50;;;;;;;;;;5012384;28;20465;-47
2023/01/02 04:24:13;;;;;;;12.80;4.83;;;;;;;;;;5012842;28;20499;-45
2023/01/02 04:26:48;;;;;;;6.07;3.97;;;;;;;;;;5012917;28;20765;-46
2023/01/02 04:29:15;;;;;;;10.53;4.47;;;;;;;;;;5007769;28;20903;-45
2023/01/02 04:31:46;;;;;;;8.90;4.53;;;;;;;;;;5013747;28;20830;-46
2023/01/02 04:34:13;;;;;;;11.10;3.80;;;;;;;;;;5014007;28;20414;-47
2023/01/02 04:36:40;;;;;;;6.97;4.20;;;;;;;;;;4995411;28;20449;-46
2023/01/02 04:39:06;;;;;;;7.13;4.77;;;;;;;;;;5012712;28;20427;-47
2023/01/02 04:41:33;;;;;;;11.47;3.90;;;;;;;;;;5010971;28;20410;-46
2023/01/02 04:43:59;;;;;;;9.50;3.97;;;;;;;;;;5014448;28;20443;-46
2023/01/02 04:46:26;;;;;;;10.73;3.83;;;;;;;;;;5006970;28;20422;-45
2023/01/02 04:48:53;;;;;;;5.57;3.50;;;;;;;;;;5012695;28;20434;-46
2023/01/02 04:51:20;;;;;;;6.43;3.60;;;;;;;;;;5013683;28;20489;-45
2023/01/02 04:53:49;;;;;;;6.37;3.60;;;;;;;;;;5009371;28;20417;-46
2023/01/02 04:56:15;;;;;;;12.23;4.13;;;;;;;;;;5008952;28;20417;-47
2023/01/02 04:58:42;;;;;;;8.07;4.47;;;;;;;;;;4995203;28;20522;-46
2023/01/02 05:01:09;;;;;;;5.77;4.30;;;;;;;;;;5012821;28;20408;-47
2023/01/02 05:03:38;;;;;;;6.33;4.27;;;;;;;;;;5012375;28;20920;-46
2023/01/02 05:06:04;;;;;;;10.60;4.20;;;;;;;;;;5009978;28;20443;-46
2023/01/02 05:08:30;;;;;;;12.67;7.43;;;;;;;;;;5012430;28;20440;-45
2023/01/02 05:10:56;;;;;;;7.70;4.20;;;;;;;;;;5006598;28;20462;-47
2023/01/02 05:13:22;;;;;;;9.13;4.20;;;;;;;;;;5012265;28;20422;-46
2023/01/02 05:15:55;;;;;;;13.63;3.90;;;;;;;;;;5011535;28;20417;-45
2023/01/02 05:18:21;;;;;;;15.37;3.83;;;;;;;;;;5010435;28;20424;-45
2023/01/02 05:20:47;;;;;;;7.33;3.37;;;;;;;;;;4994642;28;20891;-46
2023/01/02 05:25:57;;;;;;;6.53;3.00;;;;;;;;;;5009923;28;20414;-45
2023/01/02 05:28:23;;;;;;;11.20;3.40;;;;;;;;;;5004568;28;20433;-45
2023/01/02 05:30:49;;;;;;;9.20;3.00;;;;;;;;;;5011222;28;20465;-46
2023/01/02 05:33:15;;;;;;;4.73;2.80;;;;;;;;;;5010681;28;20439;-45
2023/01/02 05:35:41;;;;;;;5.40;3.20;;;;;;;;;;5007726;28;20417;-46
2023/01/02 05:38:07;;;;;;;7.73;3.43;;;;;;;;;;5014709;28;20987;-45
2023/01/02 05:40:33;;;;;;;5.57;3.40;;;;;;;;;;5015425;28;20816;-46
2023/01/02 05:42:59;;;;;;;12.70;3.67;;;;;;;;;;5008452;28;20488;-46
2023/01/02 05:45:25;;;;;;;6.93;3.50;;;;;;;;;;5015007;28;20414;-47
2023/01/02 05:47:52;;;;;;;4.00;3.60;;;;;;;;;;5013242;28;20500;-48
2023/01/02 05:50:18;;;;;;;4.80;3.47;;;;;;;;;;5015459;28;20415;-46
2023/01/02 05:52:44;;;;;;;9.97;4.10;;;;;;;;;;4992442;28;20828;-47
2023/01/02 05:55:09;;;;;;;7.00;3.40;;;;;;;;;;5010526;28;20417;-46
2023/01/02 05:57:35;;;;;;;8.40;3.43;;;;;;;;;;5011639;28;20439;-46
2023/01/02 06:00:02;;;;;;;6.37;3.77;;;;;;;;;;5014746;28;20410;-47
2023/01/02 06:02:27;;;;;;;7.23;3.27;;;;;;;;;;5014933;28;20432;-46
2023/01/02 06:04:53;;;;;;;6.90;3.10;;;;;;;;;;5010513;28;20430;-46
2023/01/02 06:07:19;;;;;;;6.93;2.97;;;;;;;;;;5008745;28;20534;-47
2023/01/02 06:09:46;;;;;;;8.73;3.07;;;;;;;;;;5014384;28;20423;-46
2023/01/02 06:12:12;;;;;;;5.60;3.03;;;;;;;;;;5014595;28;20475;-45
2023/01/02 06:14:38;;;;;;;6.83;3.73;;;;;;;;;;5012063;28;20425;-46
2023/01/02 06:17:04;;;;;;;3.40;3.10;;;;;;;;;;5004763;28;20402;-46
2023/01/02 06:19:30;;;;;;;3.60;2.70;;;;;;;;;;5014240;28;20920;-44
2023/01/02 06:21:56;;;;;;;5.17;3.03;;;;;;;;;;5009103;28;21025;-46
2023/01/02 06:24:22;;;;;;;7.93;3.83;;;;;;;;;;5014481;28;20432;-46
2023/01/02 06:26:48;;;;;;;8.03;2.90;;;;;;;;;;5014175;28;20424;-47
2023/01/02 06:29:14;;;;;;;6.73;3.90;;;;;;;;;;5003037;28;20424;-46
2023/01/02 06:31:40;;;;;;;5.33;2.97;;;;;;;;;;5013888;28;20490;-47
2023/01/02 06:34:06;;;;;;;5.60;3.93;;;;;;;;;;5011789;28;20445;-46
2023/01/02 06:36:33;;;;;;;5.57;3.40;;;;;;;;;;5010389;28;20407;-46
2023/01/02 06:38:59;;;;;;;6.55;3.20;;;;;;;;;;5013379;28;20422;-42
2023/01/02 06:41:25;;;;;;;6.10;3.10;;;;;;;;;;5012858;28;20189;-43
2023/01/02 06:43:51;;;;;;;5.40;3.03;;;;;;;;;;5010585;28;20751;-42
2023/01/02 06:46:19;;;;;;;5.50;2.97;;;;;;;;;;5012731;28;20496;-42
2023/01/02 06:48:45;;;;;;;7.53;3.77;;;;;;;;;;5007381;28;20441;-42
2023/01/02 06:51:13;;;;;;;4.10;2.83;;;;;;;;;;5013503;28;20797;-42
2023/01/02 06:53:40;;;;;;;5.43;3.23;;;;;;;;;;4995726;28;20765;-42
2023/01/02 06:56:06;;;;;;;8.50;2.77;;;;;;;;;;5013081;28;20410;-42
2023/01/02 06:58:33;;;;;;;2.90;2.40;;;;;;;;;;5013169;28;20951;-43
2023/01/02 07:01:03;;;;;;;4.73;2.80;;;;;;;;;;5009809;28;20444;-42
2023/01/02 07:03:29;;;;;;;4.97;2.83;;;;;;;;;;5013353;28;20700;-43
2023/01/02 07:06:01;;;;;;;6.27;3.20;;;;;;;;;;5006212;28;20450;-42
2023/01/02 07:08:27;;;;;;;11.20;3.20;;;;;;;;;;5012886;28;20473;-42
2023/01/02 07:10:53;;;;;;;4.07;2.87;;;;;;;;;;4998850;28;20464;-42
2023/01/02 07:13:18;;;;;;;5.70;2.97;;;;;;;;;;5013185;28;20903;-43
2023/01/02 07:15:44;;;;;;;2.20;2.00;;;;;;;;;;5013060;28;20955;-43
2023/01/02 07:18:10;;;;;;;6.77;2.80;;;;;;;;;;5007677;28;20998;-42
2023/01/02 07:20:36;;;;;;;6.57;2.70;;;;;;;;;;5012889;28;20983;-44
2023/01/02 07:23:02;;;;;;;5.90;2.40;;;;;;;;;;5013016;28;20936;-42
2023/01/02 07:25:28;;;;;;;5.27;3.07;;;;;;;;;;5010812;28;20790;-42
2023/01/02 07:27:54;;;;;;;5.73;3.53;;;;;;;;;;4999973;28;20496;-42
2023/01/02 07:30:20;;;;;;;6.37;2.80;;;;;;;;;;5008858;28;20434;-42
2023/01/02 07:32:46;;;;;;;10.63;3.73;;;;;;;;;;5011716;28;20400;-43
2023/01/02 07:35:12;;;;;;;4.60;2.57;;;;;;;;;;5012595;28;20408;-42
2023/01/02 07:37:38;;;;;;;4.90;2.93;;;;;;;;;;5012296;28;20435;-42
2023/01/02 07:40:04;;;;;;;3.90;3.23;;;;;;;;;;5010705;28;21007;-42
2023/01/02 07:42:30;;;;;;;4.20;2.80;;;;;;;;;;5012804;28;20428;-42
2023/01/02 07:44:56;;;;;;;6.37;3.90;;;;;;;;;;5007520;28;20793;-43
2023/01/02 07:47:22;;;;;;;3.53;2.57;;;;;;;;;;5012326;28;20437;-44
2023/01/02 07:49:48;;;;;;;5.90;2.70;;;;;;;;;;4994682;28;20441;-42
2023/01/02 07:52:14;;;;;;;3.90;2.83;;;;;;;;;;5016520;28;20472;-42
2023/01/02 07:54:40;;;;;;;3.87;3.33;;;;;;;;;;5012119;28;20984;-42
2023/01/02 07:57:06;;;;;;;8.60;3.60;;;;;;;;;;5012043;28;20424;-41
2023/01/02 07:59:32;;;;;;;6.70;3.37;;;;;;;;;;5012239;28;20415;-42
2023/01/02 08:01:58;;;;;;;8.40;3.87;;;;;;;;;;5012246;28;20929;-42
2023/01/02 08:04:24;;;;;;;7.27;3.23;;;;;;;;;;5012264;28;20825;-43
2023/01/02 08:06:49;;;;;;;5.07;3.23;;;;;;;;;;5010070;28;20443;-43
2023/01/02 08:09:15;;;;;;;5.83;3.67;;;;;;;;;;5010265;28;20415;-43
2023/01/02 08:11:41;;;;;;;5.30;3.10;;;;;;;;;;5009119;28;20606;-42
2023/01/02 08:14:07;;;;;;;10.10;3.93;;;;;;;;;;5011870;28;20470;-42
2023/01/02 08:16:35;;;;;;;7.00;3.77;;;;;;;;;;5011683;28;20455;-42
2023/01/02 08:19:01;;;;;;;7.27;3.80;;;;;;;;;;5012104;28;20554;-43
2023/01/02 08:21:27;;;;;;;5.67;3.47;;;;;;;;;;5010255;28;20510;-43
2023/01/02 08:23:53;;;;;;;7.83;4.00;;;;;;;;;;5011697;28;20450;-43
2023/01/02 08:26:19;;;;;;;6.90;3.80;;;;;;;;;;5008067;28;20420;-43
2023/01/02 08:28:45;;;;;;;4.70;3.63;;;;;;;;;;5010506;28;20951;-43
2023/01/02 08:31:13;;;;;;;6.20;3.60;;;;;;;;;;5011781;28;20447;-43
2023/01/02 08:33:39;;;;;;;7.73;4.97;;;;;;;;;;5012101;28;20424;-42
2023/01/02 08:36:05;;;;;;;5.13;4.63;;;;;;;;;;5010237;28;20498;-42
2023/01/02 08:38:31;;;;;;;6.13;4.23;;;;;;;;;;5011439;28;20439;-42
2023/01/02 08:40:58;;;;;;;6.67;4.30;;;;;;;;;;5006828;28;20447;-43
2023/01/02 08:43:24;;;;;;;5.47;4.00;;;;;;;;;;5011953;28;20449;-42
2023/01/02 08:45:50;;;;;;;3.97;3.60;;;;;;;;;;4993667;28;20958;-42
2023/01/02 08:48:16;;;;;;;9.60;4.33;;;;;;;;;;5011605;28;20446;-42
2023/01/02 08:50:42;;;;;;;5.10;4.40;;;;;;;;;;5011541;28;20537;-43
2023/01/02 08:53:08;;;;;;;8.03;4.63;;;;;;;;;;5009067;28;20797;-43
2023/01/02 08:55:34;;;;;;;6.30;4.13;;;;;;;;;;4994437;28;20759;-42
2023/01/02 08:57:59;;;;;;;5.97;4.27;;;;;;;;;;5005693;28;20542;-43
2023/01/02 09:00:25;;;;;;;7.60;4.90;;;;;;;;;;5011877;28;20466;-42
2023/01/02 09:02:51;;;;;;;9.57;4.90;;;;;;;;;;5010864;28;20895;-43
2023/01/02 09:05:17;;;;;;;7.63;4.47;;;;;;;;;;5010345;28;20425;-44
2023/01/02 09:07:43;;;;;;;8.63;4.80;;;;;;;;;;4992232;28;20446;-43
2023/01/02 09:10:10;;;;;;;6.20;4.33;;;;;;;;;;5007145;28;20419;-42
2023/01/02 09:12:36;;;;;;;4.93;3.90;;;;;;;;;;5008897;28;20462;-43
2023/01/02 09:15:03;;;;;;;6.70;3.90;;;;;;;;;;5007666;28;20439;-42
2023/01/02 09:17:29;;;;;;;4.90;3.67;;;;;;;;;;5015702;28;20431;-46
2023/01/02 09:19:54;;;;;;;8.03;4.00;;;;;;;;;;5012364;28;20414;-43
2023/01/02 09:22:20;;;;;;;8.03;3.70;;;;;;;;;;5015311;28;20419;-43
2023/01/02 09:24:46;;;;;;;9.20;4.10;;;;;;;;;;4999958;28;20473;-42
2023/01/02 09:27:13;;;;;;;7.73;4.13;;;;;;;;;;5009987;28;20423;-42
2023/01/02 09:29:38;;;;;;;3.73;2.90;;;;;;;;;;5015524;28;20423;-42
2023/01/02 09:32:04;;;;;;;7.93;2.97;;;;;;;;;;5015417;28;20467;-43
2023/01/02 09:34:30;;;;;;;3.40;3.03;;;;;;;;;;5011993;28;20411;-43
2023/01/02 09:36:56;;;;;;;5.10;2.83;;;;;;;;;;5014915;28;20407;-43
2023/01/02 09:39:22;;;;;;;5.30;2.47;;;;;;;;;;5010138;28;20810;-43
2023/01/02 09:41:58;;;;;;;3.20;2.57;;;;;;;;;;5014199;28;20949;-43
2023/01/02 09:44:25;;;;;;;2.67;2.47;;;;;;;;;;5015421;28;20497;-43
2023/01/02 09:47:01;;;;;;;2.97;2.77;;;;;;;;;;5014881;28;20510;-44
2023/01/02 09:49:29;;;;;;;2.70;2.47;;;;;;;;;;5011813;28;20480;-44
2023/01/02 09:51:55;;;;;;;2.90;2.70;;;;;;;;;;5011121;28;21069;-45
2023/01/02 09:54:26;;;;;;;4.67;3.30;;;;;;;;;;5008468;28;20446;-43
2023/01/02 09:56:58;;;;;;;5.27;2.80;;;;;;;;;;5006384;28;20415;-43
2023/01/02 09:59:28;;;;;;;3.00;2.80;;;;;;;;;;5013240;28;20411;-43
2023/01/02 10:02:06;;;;;;;3.27;2.97;;;;;;;;;;4983709;28;20430;-44
2023/01/02 10:04:45;;;;;;;5.53;3.30;;;;;;;;;;5013408;28;20498;-43
2023/01/02 10:07:32;;;;;;;4.87;3.50;;;;;;;;;;5014324;28;20446;-43
2023/01/02 10:10:19;;;;;;;4.80;3.23;;;;;;;;;;5014169;28;20411;-44
2023/01/02 10:12:48;;;;;;;3.20;2.90;;;;;;;;;;5014640;28;20414;-42
2023/01/02 10:15:18;;;;;;;6.00;3.40;;;;;;;;;;5014355;28;20398;-43
2023/01/02 10:17:47;;;;;;;5.57;3.47;;;;;;;;;;5014378;28;20934;-42
2023/01/02 10:20:13;;;;;;;4.50;4.10;;;;;;;;;;5014242;28;20467;-42
2023/01/02 10:22:46;;;;;;;3.97;3.67;;;;;;;;;;5013283;28;20843;-43
2023/01/02 10:25:17;;;;;;;3.90;3.60;;;;;;;;;;5014136;28;20407;-43
2023/01/02 10:27:47;;;;;;;4.43;4.03;;;;;;;;;;5014034;28;20506;-43
2023/01/02 10:30:17;;;;;;;3.90;3.60;;;;;;;;;;5014027;28;20407;-43
2023/01/02 10:32:46;;;;;;;4.20;3.70;;;;;;;;;;4996556;28;20514;-44
2023/01/02 10:35:30;;;;;;;4.20;3.50;;;;;;;;;;5014070;28;20498;-43
2023/01/02 10:37:56;;;;;;;4.07;3.70;;;;;;;;;;5013769;28;20462;-42
2023/01/02 10:40:23;;;;;;;4.90;4.40;;;;;;;;;;5013817;28;20403;-43
2023/01/02 10:42:52;;;;;;;10.20;5.20;;;;;;;;;;5013856;28;20812;-44
2023/01/02 10:45:18;;;;;;;9.30;5.17;;;;;;;;;;4996006;28;20419;-43
2023/01/02 10:47:45;;;;;;;5.93;5.13;;;;;;;;;;5013542;28;20510;-43
2023/01/02 10:50:15;;;;;;;6.40;5.80;;;;;;;;;;5013628;28;20423;-43
2023/01/02 10:52:51;;;;;;;6.43;5.77;;;;;;;;;;4996359;28;20875;-42
2023/01/02 10:55:30;;;;;;;7.23;6.47;;;;;;;;;;4996066;28;20966;-42
2023/01/02 10:58:01;;;;;;;7.60;6.23;;;;;;;;;;5007253;28;20424;-43
2023/01/02 11:00:29;;;;;;;8.40;6.03;;;;;;;;;;4994194;28;20404;-43
2023/01/02 11:02:56;;;;;;;9.83;6.30;;;;;;;;;;4992879;28;20407;-43
2023/01/02 11:05:26;;;;;;;8.73;6.13;;;;;;;;;;4993924;28;20430;-42
2023/01/02 11:07:53;;;;;;;8.73;7.00;;;;;;;;;;4993696;28;20428;-43
2023/01/02 11:10:27;;;;;;;6.70;5.60;;;;;;;;;;4993798;28;20850;-43
2023/01/02 11:12:54;;;;;;;7.60;5.87;;;;;;;;;;4993893;28;20422;-42
2023/01/02 11:15:33;;;;;;;8.73;6.67;;;;;;;;;;4993620;28;20919;-43
2023/01/02 11:17:59;;;;;;;50.37;26.37;;;;;;;;;;5005601;28;20437;-43
2023/01/02 11:20:35;;;;;;;9.20;7.33;;;;;;;;;;5013026;28;20530;-42
2023/01/02 11:23:02;;;;;;;10.53;7.17;;;;;;;;;;5013109;28;20796;-43
2023/01/02 11:25:32;;;;;;;9.30;7.50;;;;;;;;;;5012882;28;20449;-44
2023/01/02 11:27:59;;;;;;;10.03;7.00;;;;;;;;;;4993741;28;20569;-43
2023/01/02 11:30:42;;;;;;;11.37;7.57;;;;;;;;;;5012811;28;20882;-44
2023/01/02 11:33:24;;;;;;;7.20;6.50;;;;;;;;;;5012760;28;20419;-42
2023/01/02 11:35:51;;;;;;;8.50;7.27;;;;;;;;;;5012010;28;20418;-42
2023/01/02 11:38:18;;;;;;;9.57;7.33;;;;;;;;;;5012778;28;20435;-43
2023/01/02 11:40:55;;;;;;;8.73;7.30;;;;;;;;;;4995618;28;20859;-44
2023/01/02 11:46:18;;;;;;;10.33;8.03;;;;;;;;;;5010818;28;20426;-44
2023/01/02 11:48:44;;;;;;;7.90;7.10;;;;;;;;;;5012313;28;20450;-44
2023/01/02 11:51:18;;;;;;;8.63;7.73;;;;;;;;;;5012317;28;20466;-43
2023/01/02 11:53:47;;;;;;;8.30;7.43;;;;;;;;;;5011785;28;20769;-43
2023/01/02 11:56:35;;;;;;;8.13;7.33;;;;;;;;;;5009963;28;20759;-44
2023/01/02 11:59:22;;;;;;;9.57;8.67;;;;;;;;;;4992788;28;20867;-44
2023/01/02 12:01:55;;;;;;;9.73;7.47;;;;;;;;;;4992515;28;20522;-44
2023/01/02 12:04:21;;;;;;;11.00;7.60;;;;;;;;;;5002855;28;20969;-44
2023/01/02 12:06:56;;;;;;;9.97;8.23;;;;;;;;;;4992498;28;20410;-44
2023/01/02 12:09:27;;;;;;;9.03;7.30;;;;;;;;;;5010546;28;20442;-44
2023/01/02 12:12:12;;;;;;;9.63;8.33;;;;;;;;;;5012164;28;20503;-43
2023/01/02 12:14:38;;;;;;;11.43;9.00;;;;;;;;;;5011765;28;20959;-44
2023/01/02 12:17:10;;;;;;;11.10;8.60;;;;;;;;;;4999618;28;20508;-44
2023/01/02 12:19:52;;;;;;;11.17;9.23;;;;;;;;;;4992232;28;20408;-44
2023/01/02 12:22:21;;;;;;;12.37;8.17;;;;;;;;;;4992650;28;20413;-43
2023/01/02 12:25:09;;;;;;;11.67;8.83;;;;;;;;;;4992381;28;20460;-44
2023/01/02 12:27:40;;;;;;;11.07;8.40;;;;;;;;;;4998662;28;20423;-44
2023/01/02 12:30:12;;;;;;;9.70;7.53;;;;;;;;;;5011616;28;20442;-44
2023/01/02 12:32:39;;;;;;;7.50;6.70;;;;;;;;;;5011562;28;20492;-43
2023/01/02 12:35:25;;;;;;;9.40;7.80;;;;;;;;;;5011937;28;20443;-44
2023/01/02 12:37:55;;;;;;;7.67;6.77;;;;;;;;;;5011729;28;20427;-44
2023/01/02 12:40:39;;;;;;;8.97;6.63;;;;;;;;;;5012421;28;20410;-43
2023/01/02 12:43:08;;;;;;;8.53;7.40;;;;;;;;;;5011720;28;21006;-42
2023/01/02 12:45:53;;;;;;;10.33;6.90;;;;;;;;;;5011391;28;20419;-42
2023/01/02 12:48:48;;;;;;;8.70;6.53;;;;;;;;;;5011690;28;20438;-43
2023/01/02 12:51:23;;;;;;;10.20;6.80;;;;;;;;;;4994892;28;20626;-42
2023/01/02 12:54:04;;;;;;;7.30;6.13;;;;;;;;;;5010806;28;20426;-43
2023/01/02 12:56:50;;;;;;;8.23;6.33;;;;;;;;;;4997425;28;20923;-43
2023/01/02 12:59:40;;;;;;;6.40;5.40;;;;;;;;;;4991914;28;20426;-42
2023/01/02 13:02:26;;;;;;;6.53;5.77;;;;;;;;;;4992032;28;20416;-42
2023/01/02 13:04:55;;;;;;;7.77;5.83;;;;;;;;;;4990700;28;20427;-44
2023/01/02 13:07:39;;;;;;;7.50;6.33;;;;;;;;;;4991767;28;20513;-43
2023/01/02 13:10:06;;;;;;;7.27;6.00;;;;;;;;;;4991956;28;20856;-42
2023/01/02 13:12:33;;;;;;;6.10;4.90;;;;;;;;;;4991753;28;20471;-42
2023/01/02 13:15:07;;;;;;;8.10;6.20;;;;;;;;;;4991891;28;20532;-43
2023/01/02 13:17:39;;;;;;;6.60;5.40;;;;;;;;;;4991775;28;20432;-43
2023/01/02 13:20:25;;;;;;;6.37;5.30;;;;;;;;;;4991695;28;20404;-42
2023/01/02 13:22:51;;;;;;;8.50;6.47;;;;;;;;;;4991677;28;20416;-42
2023/01/02 13:25:18;;;;;;;8.70;5.77;;;;;;;;;;4991897;28;20999;-42
2023/01/02 13:27:44;;;;;;;9.07;5.57;;;;;;;;;;4991550;28;20531;-43
2023/01/02 13:30:37;;;;;;;6.40;5.33;;;;;;;;;;4999346;28;20429;-43
2023/01/02 13:33:04;;;;;;;14.27;7.30;;;;;;;;;;4993892;28;20515;-43
2023/01/02 13:35:33;;;;;;;6.77;5.60;;;;;;;;;;5003480;28;20766;-43
2023/01/02 13:38:00;;;;;;;8.50;6.17;;;;;;;;;;5011015;28;20419;-43
2023/01/02 13:40:31;;;;;;;7.87;5.77;;;;;;;;;;5004008;28;20904;-43
2023/01/02 13:42:58;;;;;;;5.80;5.20;;;;;;;;;;5011049;28;20392;-43
2023/01/02 13:45:33;;;;;;;9.70;5.47;;;;;;;;;;5009823;28;20401;-42
2023/01/02 13:48:13;;;;;;;8.30;6.37;;;;;;;;;;5011197;28;20436;-43
2023/01/02 13:50:39;;;;;;;7.73;5.40;;;;;;;;;;5009031;28;20953;-42
2023/01/02 13:53:05;;;;;;;8.20;6.40;;;;;;;;;;5005701;28;20415;-43
2023/01/02 13:55:40;;;;;;;8.57;5.57;;;;;;;;;;5010719;28;20412;-42
2023/01/02 13:58:16;;;;;;;7.50;5.50;;;;;;;;;;5012659;28;20433;-43
2023/01/02 14:00:55;;;;;;;6.07;5.03;;;;;;;;;;5012394;28;20945;-42
2023/01/02 14:03:21;;;;;;;6.93;5.00;;;;;;;;;;5014541;28;20419;-43
2023/01/02 14:05:58;;;;;;;8.30;5.40;;;;;;;;;;5005054;28;20416;-45
2023/01/02 14:08:29;;;;;;;6.63;5.20;;;;;;;;;;4994869;28;20447;-44
2023/01/02 14:10:59;;;;;;;7.43;5.10;;;;;;;;;;4994725;28;20614;-42
2023/01/02 14:13:31;;;;;;;6.83;5.73;;;;;;;;;;4995058;28;20413;-44
2023/01/02 14:16:05;;;;;;;8.50;4.73;;;;;;;;;;4994734;28;20436;-42
2023/01/02 14:18:31;;;;;;;9.00;6.40;;;;;;;;;;4994620;28;20638;-44
2023/01/02 14:20:57;;;;;;;7.07;5.40;;;;;;;;;;5004634;28;21111;-42
2023/01/02 14:23:28;;;;;;;6.53;5.20;;;;;;;;;;5014221;28;20470;-43
2023/01/02 14:25:54;;;;;;;7.13;5.30;;;;;;;;;;5013624;28;20445;-43
2023/01/02 14:28:24;;;;;;;8.23;4.87;;;;;;;;;;5012006;28;20481;-43
2023/01/02 14:30:51;;;;;;;8.80;5.73;;;;;;;;;;5011700;28;20488;-43
2023/01/02 14:33:23;;;;;;;8.10;5.73;;;;;;;;;;5012845;28;20942;-43
2023/01/02 14:35:51;;;;;;;6.90;5.90;;;;;;;;;;5012504;28;20449;-44
2023/01/02 14:38:20;;;;;;;8.57;5.40;;;;;;;;;;5012516;28;20831;-43
2023/01/02 14:40:46;;;;;;;6.60;5.50;;;;;;;;;;5013710;28;20919;-43
2023/01/02 14:43:35;;;;;;;6.63;5.00;;;;;;;;;;5013681;28;20919;-44
2023/01/02 14:46:04;;;;;;;8.67;5.87;;;;;;;;;;5012095;28;20414;-44
2023/01/02 14:48:49;;;;;;;8.77;6.20;;;;;;;;;;5011250;28;20431;-44
2023/01/02 14:51:35;;;;;;;12.73;6.20;;;;;;;;;;5006619;28;20458;-44
2023/01/02 14:54:19;;;;;;;10.90;6.70;;;;;;;;;;5006518;28;20425;-43
2023/01/02 14:56:47;;;;;;;10.77;6.53;;;;;;;;;;5013658;28;20446;-44
2023/01/02 14:59:28;;;;;;;9.00;6.50;;;;;;;;;;5009922;28;20899;-43